메인 페이지
METAR-TAF:

METAR-TAF

공항 :

새스커툰, 서스캐처원, 캐나다

위도: 52-10N, 경도: 106-41W, 고도: 501m

현재 날씨관측

예보는 41분 전, 08:00시(UTC)에 발표되었습니다.
9kt
온도 18°C
습도 77%
기압 1016 hPa
시정: 24.1km
고도 30000ft 상공 구름 조금

METAR: CYXE 200800Z 17009KT 15SM FEW300 18/14 A2999 RMK CI1 SLP158 DENSITY ALT 2400FT

시각: 02:41 (08:41 UTC)

예보

예보는 3 시간 3분 전, 05:38시(UTC)에 발표되었습니다.
예보 대상 시간: 20일 06시부터 21일 06시까지 (UTC)
남동8kt
시정: 10km
고도 6000ft 상공 구름 조금
고도 30000ft 상공 구름 보통
전환 중
20일 07시부터 20일 09시까지 (UTC)
남동8kt
20일 1500시부터 (UTC)
남남동12kt
시정: 10km
고도 10000ft 상공 구름 조금
고도 20000ft 상공 구름 많음
20일 1800시부터 (UTC)
남남동12kt, 순간 최대 풍속 22kt
시정: 10km
고도 7000ft 상공 구름 보통
일시적
20일 18시부터 20일 22시까지 (UTC)
시정: 10km
고도 6000ft 상공 구름 많음, 적란운.
약한소나기, 시계 내 뇌우
20일 2200시부터 (UTC)
남남동20kt, 순간 최대 풍속 30kt
시정: 10km
맑음
전환 중
21일 01시부터 21일 03시까지 (UTC)
남남동15kt, 순간 최대 풍속 25kt

TAF: CYXE 200538Z 2006/2106 14008KT P6SM FEW060 SCT300 BECMG 2007/2009 14008KT FM201500 15012KT P6SM FEW100 BKN200 FM201800 15012G22KT P6SM SCT070 TEMPO 2018/2022 P6SM -SHRA VCTS BKN060CB FM202200 15020G30KT P6SM SKC BECMG 2101/2103 15015G25KT RMK NXT FCST BY 201200Z

4,000개 이상의 공항 관측 자료 및 예보 (METAR 및 TAF 보고).

지도상에서 검색 가능한 기상관측소가 노란 점과 빨간 점으로 표시되어 있습니다.

기상관측소 명을 보려면 표시 위로 마우스를 이동하세요.

날씨 관측과 예보를 보려면 클릭하세요.

지도 변경 : 확대하려면 엑스 표시가 있는 녹색 버튼, 축소하려면 빼기 표시가 있는 녹색 버튼, 다음 페이지의 지도를 보려면 녹색 화살표를 클릭하세요.


METAR-TAF: